Terminal Aerodrome Forecast
Issued by NWS

Home | Current Version | Previous Version | Text Only | Print | Product List | Glossary Off
Versions: 1 2 3 4 5 6 7 8 9 10 11 12 13 14 15 16 17 18 19 20

000
FTUS43 KABR 260700 AAA
TAFPIR
TAF AMD
KPIR 260724Z 2607/2706 32025G35KT P6SM OVC010
     FM261200 34016G25KT P6SM OVC015
     FM261500 34012KT P6SM OVC025
     FM261800 36006KT P6SM OVC050=

USA.gov is the U.S. government's official web portal to all federal, state and local government web resources and services.